Time;durP1;ratioP1;P1;durP2;ratioP2;P2;SDS_P1;SDS_P2;PMS_P1;PMS_P2;Temp;Humidity;BMP_temperature;BMP_pressure;BME280_temperature;BME280_humidity;BME280_pressure;Samples;Min_cycle;Max_cycle;Signal;HPM_P1;HPM_P2
2022/04/01 00:02:45;;;;;;;1.60;1.08;;;;;;;17.31;51.81;94681.41;10383685;28;20113;-23
2022/04/01 00:07:46;;;;;;;2.80;1.55;;;;;;;17.34;51.96;94689.72;10384639;28;20037;-22
2022/04/01 00:12:46;;;;;;;3.30;1.37;;;;;;;17.35;51.90;94698.13;10390449;28;20378;-22
2022/04/01 00:17:47;;;;;;;2.63;0.90;;;;;;;17.33;51.30;94684.72;10387036;28;20292;-23
2022/04/01 00:22:47;;;;;;;2.67;1.30;;;;;;;17.31;51.68;94681.41;10391698;28;20041;-23
2022/04/01 00:27:49;;;;;;;9.40;1.42;;;;;;;17.31;51.80;94676.34;10389940;28;20026;-23
2022/04/01 00:32:50;;;;;;;1.67;1.15;;;;;;;17.31;51.76;94681.41;10374302;28;20414;-22
2022/04/01 00:37:52;;;;;;;1.38;1.10;;;;;;;17.33;51.64;94689.78;10394686;28;20033;-23
2022/04/01 00:42:52;;;;;;;2.92;2.08;;;;;;;17.37;59.34;94688.84;10391893;28;20482;-23
2022/04/01 00:47:55;;;;;;;4.40;2.17;;;;;;;17.38;60.21;94693.03;10396330;28;20026;-23
2022/04/01 00:52:57;;;;;;;4.25;2.25;;;;;;;17.35;55.99;94673.69;10379516;28;20295;-23
2022/04/01 00:57:57;;;;;;;1.65;1.27;;;;;;;17.37;52.84;94676.19;10394154;28;20045;-22
2022/04/01 01:02:58;;;;;;;1.37;1.00;;;;;;;17.34;52.24;94671.19;10396930;28;20026;-23
2022/04/01 01:08:05;;;;;;;1.75;1.10;;;;;;;17.34;51.98;94671.19;10378243;28;20284;-23
2022/04/01 01:13:05;;;;;;;1.77;1.33;;;;;;;17.33;51.90;94679.66;10376638;28;20025;-22
2022/04/01 01:18:05;;;;;;;1.10;1.00;;;;;;;17.30;51.73;94669.59;10378095;28;20041;-24
2022/04/01 01:23:06;;;;;;;2.23;1.10;;;;;;;17.30;51.73;94670.44;10379714;28;20403;-23
2022/04/01 01:28:07;;;;;;;1.05;0.88;;;;;;;17.29;51.82;94661.22;10375909;28;20057;-23
2022/04/01 01:33:07;;;;;;;4.82;1.33;;;;;;;17.32;51.27;94665.38;10391977;28;20561;-22
2022/04/01 01:38:08;;;;;;;1.20;0.97;;;;;;;17.25;51.70;94648.69;10390495;28;20126;-22
2022/04/01 01:43:09;;;;;;;1.88;1.25;;;;;;;17.29;51.79;94658.69;10371750;28;20276;-23
2022/04/01 01:48:09;;;;;;;3.55;2.10;;;;;;;17.28;58.59;94648.59;10369376;28;20108;-24
2022/04/01 01:58:29;;;;;;;2.13;1.60;;;;;;;17.34;56.75;94661.91;10394368;28;20064;-22
2022/04/01 02:03:29;;;;;;;2.50;1.00;;;;;;;17.32;52.67;94650.19;10379159;28;20053;-22
2022/04/01 02:08:30;;;;;;;1.60;1.07;;;;;;;17.31;52.50;94648.53;10394174;28;20106;-22
2022/04/01 02:13:31;;;;;;;1.10;1.02;;;;;;;17.29;51.64;94648.56;10374373;28;20061;-23
2022/04/01 02:18:32;;;;;;;1.02;0.93;;;;;;;17.29;52.18;94647.72;10395637;28;20055;-21
2022/04/01 02:23:34;;;;;;;1.90;1.00;;;;;;;17.29;51.83;94642.66;10393047;28;20049;-23
2022/04/01 02:28:35;;;;;;;1.60;1.50;;;;;;;17.28;52.06;94641.84;10373070;28;20060;-22
2022/04/01 02:33:36;;;;;;;2.00;0.82;;;;;;;17.28;51.65;94651.97;10375800;28;20038;-23
2022/04/01 02:38:42;;;;;;;1.00;0.90;;;;;;;17.27;51.59;94645.25;10371930;28;20063;-22
2022/04/01 02:43:43;;;;;;;0.73;0.73;;;;;;;17.28;51.58;94651.13;10376662;28;20061;-22
2022/04/01 02:48:44;;;;;;;2.10;1.03;;;;;;;17.28;51.66;94656.19;10363667;28;20572;-22
2022/04/01 02:54:00;;;;;;;2.75;1.70;;;;;;;17.31;57.26;94648.53;10377280;28;20300;-23
2022/04/01 02:59:01;;;;;;;2.13;1.48;;;;;;;17.28;59.11;94648.59;10391257;28;20037;-23
2022/04/01 03:04:09;;;;;;;1.48;1.20;;;;;;;17.36;57.74;94659.38;10372543;28;20025;-23
2022/04/01 03:09:13;;;;;;;1.15;0.90;;;;;;;17.29;53.01;94665.44;10373576;28;20036;-22
2022/04/01 03:14:19;;;;;;;2.97;1.83;;;;;;;17.28;52.27;94671.38;10370800;28;20033;-22
2022/04/01 03:19:39;;;;;;;1.15;1.00;;;;;;;17.27;51.76;94667.19;10389566;28;20288;-22
2022/04/01 03:24:40;;;;;;;1.20;1.00;;;;;;;17.26;51.93;94670.59;10363004;28;20026;-22
2022/04/01 03:29:40;;;;;;;1.52;0.88;;;;;;;17.25;51.90;94671.47;10375354;28;20045;-22
2022/04/01 03:34:41;;;;;;;2.05;1.30;;;;;;;17.26;51.92;94663.81;10372864;28;20087;-24
2022/04/01 03:39:42;;;;;;;1.27;1.10;;;;;;;17.25;51.57;94661.34;10370173;28;20509;-22
2022/04/01 03:44:43;;;;;;;1.50;1.10;;;;;;;17.25;51.73;94663.88;10366284;28;20034;-22
2022/04/01 03:50:03;;;;;;;1.25;0.85;;;;;;;17.25;51.92;94664.69;10389683;28;20037;-23
2022/04/01 03:55:08;;;;;;;0.93;0.90;;;;;;;17.21;51.88;94662.28;10370480;28;20061;-22
2022/04/01 04:00:29;;;;;;;2.75;1.30;;;;;;;17.32;55.66;94673.75;10378106;28;20041;-24
2022/04/01 04:05:32;;;;;;;2.63;1.38;;;;;;;17.36;57.04;94677.06;10363404;28;20018;-23
2022/04/01 04:10:34;;;;;;;1.45;1.10;;;;;;;17.40;55.28;94686.25;10378863;28;20040;-22
2022/04/01 04:16:23;;;;;;;4.03;1.13;;;;;;;17.40;52.75;94681.19;10396128;28;20041;-22
2022/04/01 04:21:25;;;;;;;1.10;0.90;;;;;;;17.41;52.42;94680.31;10381035;28;20072;-23
2022/04/01 04:26:46;;;;;;;2.22;1.20;;;;;;;17.40;52.81;94682.00;10379818;28;20030;-23
2022/04/01 04:31:59;;;;;;;4.05;1.00;;;;;;;17.40;52.89;94682.00;10374965;28;20033;-23
2022/04/01 04:37:02;;;;;;;1.23;0.90;;;;;;;17.39;51.89;94693.00;10380416;28;20042;-22
2022/04/01 04:42:07;;;;;;;5.75;1.50;;;;;;;17.40;52.59;94691.31;10368237;28;20124;-22
2022/04/01 04:47:07;;;;;;;3.13;1.08;;;;;;;17.41;52.67;94698.00;10396989;28;20138;-22
2022/04/01 04:52:09;;;;;;;2.17;1.02;;;;;;;17.41;52.46;94692.97;10380014;28;20039;-22
2022/04/01 04:57:22;;;;;;;1.10;1.00;;;;;;;17.40;52.79;94701.41;10381496;28;20029;-22
2022/04/01 05:02:34;;;;;;;2.58;0.93;;;;;;;17.40;51.96;94711.53;10377857;28;20060;-23
2022/04/01 05:08:03;;;;;;;6.95;2.90;;;;;;;17.20;51.78;94722.16;10366855;28;20034;-21
2022/04/01 05:13:58;;;;;;;12.57;2.20;;;;;;;17.42;54.84;94740.13;10394632;28;20091;-22
2022/04/01 05:19:10;;;;;;;2.80;1.80;;;;;;;17.38;52.02;94736.00;10374305;28;20273;-21
2022/04/01 05:24:15;;;;;;;16.25;2.90;;;;;;;17.25;53.02;94739.72;10359474;28;20053;-22
2022/04/01 05:29:25;;;;;;;4.95;1.40;;;;;;;17.37;52.11;94752.06;10364866;28;20121;-23
2022/04/01 05:34:38;;;;;;;15.68;4.22;;;;;;;17.15;50.25;94756.03;10377100;28;20445;-22
2022/04/01 05:39:41;;;;;;;2.65;1.77;;;;;;;17.22;51.95;94760.03;10367705;28;20033;-23
2022/04/01 05:44:46;;;;;;;3.55;1.58;;;;;;;17.31;51.79;94772.44;10377160;28;20021;-22
2022/04/01 05:49:46;;;;;;;5.57;1.40;;;;;;;17.33;52.02;94770.69;10393072;28;20042;-24
2022/04/01 05:54:52;;;;;;;6.35;2.28;;;;;;;17.27;53.75;94780.97;10373601;28;20087;-22
2022/04/01 05:59:52;;;;;;;7.05;1.88;;;;;;;17.34;53.27;94777.41;10373988;28;20552;-22
2022/04/01 06:05:17;;;;;;;9.25;1.50;;;;;;;17.35;51.73;94774.00;10384386;28;20026;-22
2022/04/01 06:10:35;;;;;;;3.72;1.17;;;;;;;17.34;51.43;94787.53;10371138;28;20573;-24
2022/04/01 06:16:04;;;;;;;6.55;2.38;;;;;;;17.38;55.71;94796.72;10384707;28;20042;-20
2022/04/01 06:21:25;;;;;;;9.50;1.90;;;;;;;17.41;55.59;94799.19;10395111;28;20037;-22
2022/04/01 06:26:28;;;;;;;3.85;1.35;;;;;;;17.41;53.55;94804.25;10373934;28;20022;-23
2022/04/01 06:31:30;;;;;;;3.83;1.00;;;;;;;17.37;52.31;94812.75;10381720;28;20037;-23
2022/04/01 06:36:46;;;;;;;3.42;1.05;;;;;;;17.37;52.12;94813.59;10373680;28;20032;-23
2022/04/01 06:41:54;;;;;;;2.55;1.38;;;;;;;17.28;51.72;94818.88;10364077;28;20508;-24
2022/04/01 06:47:34;;;;;;;2.03;0.90;;;;;;;17.31;51.68;94823.84;10370466;28;20494;-22
2022/04/01 06:52:34;;;;;;;3.33;1.75;;;;;;;17.09;51.64;94830.28;10371288;28;20031;-23
2022/04/01 06:57:53;;;;;;;2.15;1.45;;;;;;;17.21;51.83;94827.47;10386645;28;20034;-22
2022/04/01 07:03:14;;;;;;;3.13;1.30;;;;;;;17.27;52.30;94827.34;10391885;28;20109;-22
2022/04/01 07:08:16;;;;;;;2.20;1.20;;;;;;;17.30;51.77;94841.56;10391787;28;20052;-23
2022/04/01 07:13:17;;;;;;;2.38;1.27;;;;;;;17.28;51.71;94844.16;10389666;28;20061;-22
2022/04/01 07:18:18;;;;;;;3.00;1.20;;;;;;;17.26;53.51;94838.28;10393367;28;20462;-24
2022/04/01 07:23:19;;;;;;;2.55;1.45;;;;;;;17.35;56.10;94847.34;10392312;28;20021;-22
2022/04/01 07:28:19;;;;;;;5.13;1.90;;;;;;;17.37;55.72;94853.22;10388617;28;20109;-22
2022/04/01 07:33:19;;;;;;;7.93;1.40;;;;;;;17.36;52.51;94854.09;10391597;28;20087;-22
2022/04/01 07:38:20;;;;;;;4.27;1.37;;;;;;;17.35;52.78;94848.19;10389055;28;20421;-23
2022/04/01 07:43:20;;;;;;;2.03;1.27;;;;;;;17.34;52.97;94858.34;10393614;28;20291;-22
2022/04/01 07:48:21;;;;;;;1.57;1.10;;;;;;;17.34;52.38;94858.34;10399226;28;20029;-22
2022/04/01 07:53:22;;;;;;;3.83;1.05;;;;;;;17.28;51.90;94869.44;10399973;28;20036;-22
2022/04/01 07:58:22;;;;;;;2.17;1.30;;;;;;;17.30;52.16;94866.88;10400326;28;20061;-22
2022/04/01 08:03:23;;;;;;;2.83;1.00;;;;;;;17.30;51.58;94872.75;10393298;28;20033;-23
2022/04/01 08:08:23;;;;;;;2.00;0.98;;;;;;;17.29;51.19;94875.31;10379294;28;20029;-22
2022/04/01 08:13:24;;;;;;;6.83;3.03;;;;;;;17.04;50.49;94880.16;10388856;28;20044;-22
2022/04/01 08:18:25;;;;;;;2.08;1.52;;;;;;;17.17;52.04;94880.69;10388820;28;20030;-22
2022/04/01 08:23:26;;;;;;;3.00;1.27;;;;;;;17.22;51.43;94883.91;10393470;28;20128;-23
2022/04/01 08:28:26;;;;;;;3.00;1.35;;;;;;;17.31;55.20;94888.78;10396164;28;20308;-23
2022/04/01 08:33:27;;;;;;;3.45;1.88;;;;;;;17.33;55.40;94892.09;10397799;28;20029;-22
2022/04/01 08:38:27;;;;;;;3.03;1.52;;;;;;;17.33;53.43;94899.69;10393347;28;20060;-22
2022/04/01 08:43:30;;;;;;;2.77;1.53;;;;;;;17.31;52.08;94906.47;10393551;28;20029;-23
2022/04/01 08:48:31;;;;;;;3.65;1.20;;;;;;;17.28;52.38;94904.84;10381734;28;20033;-22
2022/04/01 08:53:39;;;;;;;0.98;0.80;;;;;;;17.30;51.73;94912.38;10386227;28;20100;-21
2022/04/01 08:58:40;;;;;;;4.90;1.50;;;;;;;17.32;51.95;94913.19;10384966;28;20228;-23
2022/04/01 09:03:41;;;;;;;1.60;1.25;;;;;;;17.32;51.69;94915.72;10387609;28;20053;-22
2022/04/01 09:08:42;;;;;;;2.03;1.17;;;;;;;17.32;51.68;94925.84;10385061;28;20398;-22
2022/04/01 09:13:42;;;;;;;1.60;1.15;;;;;;;17.34;51.50;94924.09;10387664;28;20096;-22
2022/04/01 09:18:44;;;;;;;1.55;1.20;;;;;;;17.30;51.81;94925.88;10383856;28;20540;-23
2022/04/01 09:23:47;;;;;;;2.78;1.17;;;;;;;17.32;52.00;94931.72;10396851;28;20520;-22
2022/04/01 09:28:51;;;;;;;2.90;1.20;;;;;;;17.32;51.92;94938.50;10393448;28;20034;-23
2022/04/01 09:33:54;;;;;;;1.77;1.30;;;;;;;17.33;54.09;94948.56;10389089;28;20116;-22
2022/04/01 09:39:00;;;;;;;2.25;1.30;;;;;;;17.28;54.72;94942.78;10382705;28;20072;-22
2022/04/01 09:44:07;;;;;;;1.60;1.30;;;;;;;17.37;52.36;94949.34;10387430;28;20478;-22
2022/04/01 09:49:08;;;;;;;1.60;1.10;;;;;;;17.39;51.54;94952.66;10391854;28;20625;-23
2022/04/01 09:54:09;;;;;;;2.42;1.20;;;;;;;17.38;52.13;94956.06;10380513;28;20025;-23
2022/04/01 09:59:12;;;;;;;1.45;1.30;;;;;;;17.38;51.72;94961.13;10391295;28;20037;-22
2022/04/01 10:04:13;;;;;;;1.35;1.10;;;;;;;17.23;51.42;94969.88;10393993;28;20045;-22
2022/04/01 10:09:13;;;;;;;1.48;0.90;;;;;;;17.34;51.84;94974.69;10390952;28;20392;-22
2022/04/01 10:14:24;;;;;;;3.30;1.40;;;;;;;17.32;51.60;94962.06;10390339;28;20489;-23
2022/04/01 10:19:29;;;;;;;4.15;1.55;;;;;;;17.36;51.74;94976.34;10388725;28;20167;-22
2022/04/01 10:24:54;;;;;;;3.47;1.63;;;;;;;17.37;51.43;94984.75;10391495;28;20022;-22
2022/04/01 10:29:56;;;;;;;5.13;1.92;;;;;;;17.30;51.69;94981.50;10386842;28;20535;-22
2022/04/01 10:34:59;;;;;;;4.88;2.10;;;;;;;17.34;52.08;94989.88;10393884;28;20084;-22
2022/04/01 10:40:16;;;;;;;11.30;5.13;;;;;;;17.31;53.39;94990.75;10379023;28;20033;-22
2022/04/01 10:45:16;;;;;;;8.15;4.07;;;;;;;17.38;53.16;94981.34;10393112;28;20030;-24
2022/04/01 10:55:39;;;;;;;6.28;2.42;;;;;;;17.40;51.55;94989.75;10387551;28;20044;-22
2022/04/01 11:00:51;;;;;;;8.90;3.47;;;;;;;17.41;51.92;94988.88;10382970;28;20114;-22
2022/04/01 11:06:30;;;;;;;5.53;2.72;;;;;;;17.41;51.37;94991.41;10389110;28;20038;-22
2022/04/01 11:11:30;;;;;;;10.30;2.80;;;;;;;17.34;51.68;94990.66;10392839;28;20034;-23
2022/04/01 11:16:48;;;;;;;3.27;1.93;;;;;;;17.41;51.72;94991.41;10397758;28;20517;-23
2022/04/01 11:21:49;;;;;;;7.50;1.98;;;;;;;17.40;51.68;94995.63;10392681;28;20075;-22
2022/04/01 11:26:50;;;;;;;6.43;4.07;;;;;;;17.36;52.00;95001.66;10392046;28;20030;-22
2022/04/01 11:32:02;;;;;;;7.97;4.47;;;;;;;17.36;52.05;94999.13;10387672;28;20073;-22
2022/04/01 11:37:03;;;;;;;7.63;4.57;;;;;;;17.37;51.65;95004.97;10390283;28;20113;-24
2022/04/01 11:42:06;;;;;;;18.30;10.45;;;;;;;17.40;54.50;95004.94;10388597;28;20477;-21
2022/04/01 11:47:07;;;;;;;15.80;10.52;;;;;;;17.41;55.09;95015.00;10389821;28;20524;-22
2022/04/01 11:52:08;;;;;;;15.23;9.07;;;;;;;17.40;53.21;95010.00;10394275;28;20486;-23
2022/04/01 11:57:10;;;;;;;6.97;4.07;;;;;;;17.40;52.12;95012.53;10392736;28;20037;-22
2022/04/01 12:02:11;;;;;;;6.40;4.00;;;;;;;17.40;51.26;95007.47;10370890;28;20025;-23
2022/04/01 12:12:33;;;;;;;9.73;5.75;;;;;;;17.37;51.82;95017.63;10382170;28;20092;-22
2022/04/01 12:17:46;;;;;;;7.07;3.80;;;;;;;17.37;51.41;95020.16;10392345;28;20116;-22
2022/04/01 12:22:50;;;;;;;11.32;5.72;;;;;;;17.36;52.03;95018.50;10390165;28;20037;-22
2022/04/01 12:28:02;;;;;;;8.73;4.88;;;;;;;17.36;51.54;95023.56;10388859;28;20033;-23
2022/04/01 12:33:06;;;;;;;10.40;4.95;;;;;;;17.31;51.83;95020.28;10397483;28;20026;-21
2022/04/01 12:38:10;;;;;;;8.40;4.70;;;;;;;17.23;51.69;95027.22;10398322;28;20198;-22
2022/04/01 12:43:30;;;;;;;10.80;5.57;;;;;;;17.24;51.98;95027.16;10398560;28;20128;-23
2022/04/01 12:48:38;;;;;;;9.38;5.63;;;;;;;17.31;53.08;95035.47;10396082;28;20104;-22
2022/04/01 12:53:39;;;;;;;12.07;6.72;;;;;;;17.34;54.35;95042.97;10394507;28;20038;-23
2022/04/01 12:58:53;;;;;;;13.68;6.30;;;;;;;17.35;53.84;95044.63;10396890;28;20037;-21
2022/04/01 13:03:55;;;;;;;11.25;5.32;;;;;;;17.33;52.00;95043.84;10386431;28;20030;-22
2022/04/01 13:08:56;;;;;;;8.10;5.13;;;;;;;17.32;52.50;95047.25;10394883;28;20021;-23
2022/04/01 13:13:57;;;;;;;8.40;4.95;;;;;;;17.30;51.42;95044.75;10394224;28;20052;-24
2022/04/01 13:19:16;;;;;;;7.53;4.23;;;;;;;17.31;51.81;95043.06;10397463;28;20038;-23
2022/04/01 13:24:22;;;;;;;6.53;3.90;;;;;;;17.30;51.54;95041.38;10399895;28;20024;-22
2022/04/01 13:29:22;;;;;;;7.43;4.05;;;;;;;17.31;52.43;95038.81;10398097;28;20124;-22
2022/04/01 13:34:23;;;;;;;6.03;3.57;;;;;;;17.32;52.20;95039.66;10390325;28;20029;-23
2022/04/01 13:39:24;;;;;;;8.90;4.70;;;;;;;17.35;51.99;95042.09;10381409;28;20319;-21
2022/04/01 13:44:26;;;;;;;6.75;3.30;;;;;;;17.35;51.42;95047.16;10384110;28;20277;-22
2022/04/01 13:49:27;;;;;;;6.22;4.03;;;;;;;17.33;52.31;95038.78;10387589;28;20026;-22
2022/04/01 13:54:28;;;;;;;6.38;3.78;;;;;;;17.34;51.84;95050.56;10381683;28;20077;-22
2022/04/01 13:59:29;;;;;;;10.65;5.32;;;;;;;17.35;55.12;95048.00;10385746;28;20040;-22
2022/04/01 14:04:29;;;;;;;9.68;4.97;;;;;;;17.36;55.22;95047.16;10384254;28;20120;-23
2022/04/01 14:09:29;;;;;;;7.77;4.50;;;;;;;17.34;52.76;95045.50;10379612;28;20057;-22
2022/04/01 14:14:30;;;;;;;6.80;3.73;;;;;;;17.34;51.75;95050.56;10392529;28;20033;-22
2022/04/01 14:19:30;;;;;;;6.78;3.60;;;;;;;17.34;52.14;95042.97;10389269;28;20026;-22
2022/04/01 14:24:31;;;;;;;5.53;3.27;;;;;;;17.33;52.43;95048.91;10388763;28;20030;-21
2022/04/01 14:34:51;;;;;;;5.95;3.60;;;;;;;17.32;52.60;95047.25;10391922;28;20083;-22
2022/04/01 14:39:53;;;;;;;7.55;4.43;;;;;;;17.34;52.76;95037.91;10378335;28;20565;-22
2022/04/01 14:44:53;;;;;;;10.27;4.30;;;;;;;17.34;53.63;95050.56;10378611;28;20060;-22
2022/04/01 14:49:54;;;;;;;9.48;4.45;;;;;;;17.33;53.01;95043.84;10387928;28;20590;-23
2022/04/01 14:54:55;;;;;;;9.35;4.07;;;;;;;17.31;52.40;95048.94;10382153;28;20071;-23
2022/04/01 14:59:56;;;;;;;5.20;3.43;;;;;;;17.30;52.51;95054.00;10387837;28;20544;-23
2022/04/01 15:04:57;;;;;;;7.60;4.55;;;;;;;17.34;54.93;95053.09;10386065;28;20052;-22
2022/04/01 15:09:57;;;;;;;7.93;4.27;;;;;;;17.35;55.30;95067.41;10390801;28;20099;-23
2022/04/01 15:14:57;;;;;;;8.17;3.60;;;;;;;17.31;53.00;95061.56;10385440;28;20493;-21
2022/04/01 15:19:58;;;;;;;10.67;3.23;;;;;;;17.06;50.65;95064.66;10373621;28;20447;-22
2022/04/01 15:24:58;;;;;;;6.47;3.10;;;;;;;17.11;52.81;95067.91;10390835;28;20030;-22
2022/04/01 15:29:59;;;;;;;10.60;3.80;;;;;;;16.94;52.12;95064.91;10393669;28;20061;-22
2022/04/01 15:34:59;;;;;;;6.35;3.38;;;;;;;17.10;52.93;95062.03;10392314;28;20053;-23
2022/04/01 15:40:05;;;;;;;10.60;3.70;;;;;;;17.10;54.18;95059.53;10379290;28;20053;-22
2022/04/01 15:45:06;;;;;;;7.70;3.25;;;;;;;17.22;52.49;95071.03;10393476;28;20547;-23
2022/04/01 15:50:07;;;;;;;6.93;3.03;;;;;;;17.20;52.92;95070.25;10388559;28;20072;-24
2022/04/01 15:55:08;;;;;;;8.18;2.92;;;;;;;17.18;52.75;95082.09;10385275;28;20180;-22
2022/04/01 16:00:09;;;;;;;5.63;3.25;;;;;;;17.26;54.06;95082.78;10379647;28;20160;-23
2022/04/01 16:05:16;;;;;;;8.10;3.92;;;;;;;17.18;53.15;95079.56;10372285;28;20037;-25
2022/04/01 16:10:18;;;;;;;9.15;3.50;;;;;;;17.28;52.44;95081.03;10375479;28;20494;-23
2022/04/01 16:15:21;;;;;;;8.05;3.33;;;;;;;17.11;51.79;95094.03;10378698;28;20029;-25
2022/04/01 16:20:21;;;;;;;9.77;3.00;;;;;;;17.09;53.75;95094.94;10393476;28;20039;-25
2022/04/01 16:25:23;;;;;;;10.73;3.78;;;;;;;17.13;52.86;95112.53;10401126;28;20409;-25
2022/04/01 16:30:25;;;;;;;10.73;2.90;;;;;;;17.13;54.29;95115.06;10398198;28;20413;-25
2022/04/01 16:35:26;;;;;;;5.03;2.60;;;;;;;17.15;53.99;95125.97;10396479;28;20426;-24
2022/04/01 16:40:27;;;;;;;6.38;2.83;;;;;;;17.15;54.31;95130.22;10399598;28;20030;-25
2022/04/01 16:45:28;;;;;;;5.00;2.83;;;;;;;17.04;55.27;95132.94;10388774;28;20037;-25
2022/04/01 16:50:30;;;;;;;10.50;3.55;;;;;;;17.10;53.92;95132.00;10373686;28;20061;-25
2022/04/01 16:55:30;;;;;;;5.75;2.55;;;;;;;17.19;52.61;95139.38;10394103;28;20033;-25
2022/04/01 17:00:32;;;;;;;5.03;3.03;;;;;;;17.25;54.84;95146.88;10386805;28;20034;-24
2022/04/01 17:12:31;;;;;;;12.20;3.13;;;;;;;17.26;54.53;95139.22;10381904;28;20021;-25
2022/04/01 17:16:13;;;;;;;6.35;2.75;;;;;;;17.26;52.40;95148.53;10395893;28;20484;-25
2022/04/01 17:21:13;;;;;;;8.65;2.95;;;;;;;17.29;51.76;95149.28;10395694;28;20087;-23
2022/04/01 17:26:15;;;;;;;10.48;3.28;;;;;;;17.35;52.06;95148.34;10388688;28;20080;-23
2022/04/01 17:31:20;;;;;;;5.70;2.90;;;;;;;17.34;52.05;95141.63;10386348;28;20374;-23
2022/04/01 17:36:22;;;;;;;7.35;2.60;;;;;;;17.31;52.19;95152.63;10396086;28;20029;-22
2022/04/01 17:41:24;;;;;;;6.28;2.30;;;;;;;17.28;51.89;95151.84;10370832;28;20026;-22
2022/04/01 17:46:28;;;;;;;5.57;3.05;;;;;;;17.29;52.19;95158.56;10364542;28;20052;-22
2022/04/01 17:51:28;;;;;;;5.38;2.70;;;;;;;17.29;52.16;95168.69;10381604;28;20555;-22
2022/04/01 17:56:33;;;;;;;7.95;2.45;;;;;;;17.28;52.79;95187.25;10364996;28;20080;-23
2022/04/01 18:01:34;;;;;;;7.32;2.70;;;;;;;17.33;53.03;95198.13;10359149;28;20717;-24
2022/04/01 18:06:35;;;;;;;6.43;2.60;;;;;;;17.34;53.49;95202.31;10366077;28;20120;-22
2022/04/01 18:11:37;;;;;;;4.60;2.22;;;;;;;17.34;52.24;95205.66;10366996;28;20025;-26
2022/04/01 18:16:37;;;;;;;5.80;3.55;;;;;;;17.30;52.43;95206.59;10370005;28;20042;-23
2022/04/01 18:21:39;;;;;;;7.80;2.90;;;;;;;17.29;52.30;95216.75;10363921;28;20037;-23
2022/04/01 18:26:50;;;;;;;3.95;2.58;;;;;;;17.33;53.33;95231.00;10368040;28;20022;-22
2022/04/01 18:32:04;;;;;;;4.60;2.50;;;;;;;17.31;52.89;95223.44;10372388;28;20042;-22
2022/04/01 18:37:05;;;;;;;6.38;3.58;;;;;;;17.31;51.72;95228.50;10373041;28;20026;-23
2022/04/01 18:42:08;;;;;;;6.32;2.33;;;;;;;17.27;53.17;95248.81;10373849;28;20497;-23
2022/04/01 18:47:11;;;;;;;5.28;1.65;;;;;;;17.24;52.73;95262.34;10370406;28;20133;-23
2022/04/01 18:52:11;;;;;;;6.65;2.60;;;;;;;17.17;54.55;95265.84;10381619;28;20847;-23
2022/04/01 18:57:12;;;;;;;3.65;2.33;;;;;;;17.25;53.26;95271.59;10371371;28;20036;-24
2022/04/01 19:02:53;;;;;;;3.53;2.22;;;;;;;17.29;54.43;95283.34;10367503;28;20025;-23
2022/04/01 19:08:11;;;;;;;6.88;3.28;;;;;;;17.28;53.48;95293.47;10335626;28;20048;-24
2022/04/01 19:13:12;;;;;;;7.07;3.03;;;;;;;17.27;53.03;95291.81;10370584;28;20037;-23
2022/04/01 19:18:16;;;;;;;6.00;2.38;;;;;;;17.26;52.89;95305.31;10382020;28;20409;-24
2022/04/01 19:23:17;;;;;;;9.60;2.55;;;;;;;17.26;51.81;95295.22;10382742;28;20060;-22
2022/04/01 19:28:20;;;;;;;5.55;2.25;;;;;;;17.26;52.03;95290.16;10383609;28;20053;-24
2022/04/01 19:33:21;;;;;;;7.80;2.42;;;;;;;17.23;52.67;95301.16;10375488;28;20037;-24
2022/04/01 19:38:21;;;;;;;5.68;2.22;;;;;;;17.23;52.31;95295.28;10381515;28;20042;-23
2022/04/01 19:43:22;;;;;;;4.00;1.75;;;;;;;17.23;51.96;95302.88;10386934;28;20034;-24
2022/04/01 19:48:22;;;;;;;6.87;2.20;;;;;;;17.25;52.86;95314.59;10385035;28;20033;-23
2022/04/01 19:53:23;;;;;;;7.57;2.60;;;;;;;17.24;54.12;95312.94;10390554;28;20308;-24
2022/04/01 19:58:24;;;;;;;4.72;1.95;;;;;;;17.30;53.84;95332.22;10375164;28;20037;-23
2022/04/01 20:03:25;;;;;;;7.20;2.20;;;;;;;17.26;52.22;95333.97;10387177;28;20038;-23
2022/04/01 20:08:27;;;;;;;7.75;2.60;;;;;;;17.26;52.46;95340.72;10374919;28;20029;-23
2022/04/01 20:13:28;;;;;;;5.63;2.05;;;;;;;17.21;52.13;95327.31;10384095;28;20038;-24
2022/04/01 20:18:29;;;;;;;7.28;2.63;;;;;;;17.21;51.97;95327.31;10384661;28;20063;-24
2022/04/01 20:23:30;;;;;;;5.93;3.30;;;;;;;17.18;52.42;95322.31;10373137;28;20034;-24
2022/04/01 20:28:30;;;;;;;5.40;2.28;;;;;;;17.28;52.14;95318.78;10380000;28;20394;-23
2022/04/01 20:33:30;;;;;;;5.15;2.55;;;;;;;17.20;52.75;95316.38;10376783;28;20030;-23
2022/04/01 20:38:31;;;;;;;2.80;1.73;;;;;;;17.18;53.22;95309.69;10382041;28;20030;-24
2022/04/01 20:43:33;;;;;;;4.40;2.00;;;;;;;17.25;53.82;95313.78;10375284;28;20049;-23
2022/04/01 20:48:33;;;;;;;4.45;1.90;;;;;;;17.26;53.78;95321.31;10381974;28;20026;-24
2022/04/01 20:53:34;;;;;;;6.75;1.88;;;;;;;17.22;53.28;95321.41;10373522;28;20433;-24
2022/04/01 20:58:35;;;;;;;3.60;1.60;;;;;;;17.20;52.22;95325.66;10377926;28;20030;-24
2022/04/01 21:03:36;;;;;;;3.05;1.98;;;;;;;17.12;53.73;95320.75;10382117;28;20084;-24
2022/04/01 21:08:37;;;;;;;2.55;1.88;;;;;;;17.17;53.49;95330.78;10375959;28;20038;-24
2022/04/01 21:13:38;;;;;;;3.10;1.75;;;;;;;17.08;53.37;95336.00;10381457;28;20100;-24
2022/04/01 21:18:39;;;;;;;4.18;1.50;;;;;;;17.05;53.01;95341.06;10385701;28;20025;-23
2022/04/01 21:23:40;;;;;;;3.17;1.48;;;;;;;17.13;52.99;95339.25;10381580;28;20060;-24
2022/04/01 21:28:40;;;;;;;2.10;1.50;;;;;;;17.13;52.80;95345.16;10379020;28;20116;-22
2022/04/01 21:33:41;;;;;;;4.73;1.63;;;;;;;17.20;53.53;95343.34;10381833;28;20300;-23
2022/04/01 21:38:41;;;;;;;2.63;1.23;;;;;;;17.22;53.68;95334.03;10377880;28;20048;-22
2022/04/01 21:43:42;;;;;;;4.03;1.88;;;;;;;17.18;53.33;95340.03;10378522;28;20087;-24
2022/04/01 21:48:42;;;;;;;4.03;1.50;;;;;;;17.12;53.70;95343.50;10379334;28;20539;-23
2022/04/01 21:53:42;;;;;;;3.03;1.70;;;;;;;17.07;53.56;95334.31;10387171;28;20034;-23
2022/04/01 21:58:43;;;;;;;3.20;1.50;;;;;;;17.07;53.71;95334.31;10382089;28;20030;-23
2022/04/01 22:03:43;;;;;;;2.63;1.57;;;;;;;17.07;53.64;95344.44;10375433;28;20144;-23
2022/04/01 22:08:45;;;;;;;4.43;1.90;;;;;;;17.07;53.59;95339.38;10386939;28;20038;-23
2022/04/01 22:13:45;;;;;;;2.83;1.50;;;;;;;17.11;53.20;95340.97;10383605;28;20418;-24
2022/04/01 22:18:46;;;;;;;4.03;1.43;;;;;;;17.10;53.08;95346.91;10386486;28;20041;-23
2022/04/01 22:23:46;;;;;;;3.50;1.80;;;;;;;17.13;54.05;95339.25;10381271;28;20663;-24
2022/04/01 22:28:47;;;;;;;2.33;1.30;;;;;;;17.13;53.94;95322.41;10381388;28;20037;-24
2022/04/01 22:33:50;;;;;;;2.80;1.67;;;;;;;17.18;52.83;95327.38;10384906;28;20085;-21
2022/04/01 22:38:52;;;;;;;2.50;1.77;;;;;;;17.18;52.36;95322.31;10377621;28;20466;-23
2022/04/01 22:43:53;;;;;;;2.05;1.48;;;;;;;17.16;51.68;95321.53;10386329;28;20044;-23
2022/04/01 22:48:54;;;;;;;2.58;1.50;;;;;;;17.16;52.65;95340.03;10381446;28;20040;-24
2022/04/01 22:53:54;;;;;;;2.03;1.47;;;;;;;17.13;51.96;95336.72;10382458;28;20037;-24
2022/04/01 22:58:54;;;;;;;3.20;1.80;;;;;;;17.15;53.05;95345.16;10385975;28;20290;-24
2022/04/01 23:03:57;;;;;;;2.58;1.40;;;;;;;17.15;53.10;95347.69;10377149;28;20022;-23
2022/04/01 23:08:58;;;;;;;1.75;1.27;;;;;;;17.13;52.91;95340.09;10387945;28;20033;-23
2022/04/01 23:13:59;;;;;;;1.77;1.33;;;;;;;17.16;52.94;95334.97;10381359;28;20025;-23
2022/04/01 23:18:59;;;;;;;2.93;2.03;;;;;;;17.17;53.21;95330.78;10378757;28;20040;-23
2022/04/01 23:23:59;;;;;;;3.77;1.57;;;;;;;17.18;53.81;95340.88;10383452;28;20484;-23
2022/04/01 23:29:00;;;;;;;2.80;1.75;;;;;;;17.17;53.04;95330.78;10390085;28;20037;-24
2022/04/01 23:34:00;;;;;;;2.03;1.57;;;;;;;17.17;52.06;95343.41;10365035;28;20394;-24
2022/04/01 23:39:01;;;;;;;3.60;1.37;;;;;;;17.13;53.03;95339.25;10375100;28;20057;-23
2022/04/01 23:44:01;;;;;;;1.73;1.50;;;;;;;17.16;52.93;95339.22;10385586;28;20323;-24
2022/04/01 23:49:04;;;;;;;1.58;1.30;;;;;;;17.16;52.39;95336.69;10380773;28;20077;-23
2022/04/01 23:54:05;;;;;;;3.72;1.55;;;;;;;17.14;52.62;95340.94;10378563;28;20509;-24
2022/04/01 23:59:05;;;;;;;1.80;1.30;;;;;;;17.15;53.04;95338.38;10379263;28;20593;-23
